Flight Track Log - Related Links

Times and Time Zones

All times are in EDT time to prevent confusion due to time zone crossing. See the BJS444 flight status page for this flight to view local times or setup timezone preferences in your user account.

Time Position Orientation Groundspeed Altitude Reporting Facility
EDT Latitude Longitude Course Direction KTS MPH feet Rate Location/Type
Fri 10:59:10 PM 40.8167 -74.1333 252° West 176 203 1,500  Level New York TRACON
Fri 11:00:04 PM 40.8167 -74.2000 270° West 163 188 2,000 1,579 Climbing New York TRACON
Fri 11:01:04 PM 40.8167 -74.2667 270° West 192 221 4,500 2,750 Climbing New York TRACON
Fri 11:02:04 PM 40.8167 -74.3333 270° West 205 236 7,500 2,700 Climbing New York TRACON
Fri 11:03:04 PM 40.8500 -74.4167 298° West 280 322 9,900 2,526 Climbing New York TRACON
Fri 11:03:58 PM 40.8833 -74.5000 298° West 300 345 12,300 2,462 Climbing New York TRACON
Fri 11:04:00 PM 40.6088 -74.8146 252° West  Level FlightAware Approximate
Fri 11:04:22 PM 40.9056 -74.5461 303° West 302 348 13,100  Level New York Center
Fri 11:05:23 PM 40.9131 -74.6317 277° West 284 327 16,000 1,918 Climbing New York Center
Fri 11:06:24 PM 40.8589 -74.6944 221° Southwest 263 303 17,000 496 Climbing New York Center
Fri 11:07:24 PM 40.7917 -74.7700 220° Southwest 301 346 17,000  Level New York Center
Fri 11:08:25 PM 40.7203 -74.8508 221° Southwest 325 374 17,000 508 Level New York Center
Fri 11:09:22 PM 40.6575 -74.9208 220° Southwest 339 390 18,000 1,692 Climbing New York Center
Fri 11:10:22 PM 40.5881 -74.9958 219° Southwest 339 390 20,300 2,331 Climbing New York Center
Fri 11:11:23 PM 40.5267 -75.0767 225° Southwest 328 377 22,700 2,262 Climbing New York Center
Fri 11:12:24 PM 40.4714 -75.1689 232° Southwest 323 372 24,900 2,118 Climbing New York Center
Fri 11:13:22 PM 40.4158 -75.2581 231° Southwest 323 372 26,900 2,034 Climbing New York Center
Fri 11:14:22 PM 40.3581 -75.3494 230° Southwest 328 377 28,900 2,083 Climbing New York Center
Fri 11:15:23 PM 40.2914 -75.4539 230° Southwest 341 392 31,100 1,835 Climbing New York Center
Fri 11:16:23 PM 40.2336 -75.5481 231° Southwest 341 392 32,600 1,488 Climbing New York Center
Fri 11:17:24 PM 40.1814 -75.6503 236° Southwest 341 392 34,100 1,686 Climbing New York Center
Fri 11:18:24 PM 40.1292 -75.7525 236° Southwest 341 392 36,000 1,983 Climbing New York Center
Fri 11:19:22 PM 40.0792 -75.8522 237° Southwest 341 392 38,000 1,525 Climbing New York Center
Fri 11:20:22 PM 40.0292 -75.9489 236° Southwest 330 380 39,000 992 Climbing New York Center
Fri 11:21:23 PM 39.9811 -76.0428 236° Southwest 325 374 40,000 976 Climbing New York Center
Fri 11:22:25 PM 39.9156 -76.1108 219° Southwest 315 362 41,000 950 Climbing New York Center
Fri 11:23:23 PM 39.8361 -76.1589 205° Southwest 315 362 41,900 864 Climbing New York Center
Fri 11:24:23 PM 39.7547 -76.2039 203° Southwest 310 357 42,700 545 Climbing New York Center
Fri 11:25:24 PM 39.6797 -76.2522 206° Southwest 316 364 43,000 128 Climbing New York Center
Fri 11:26:44 PM 39.5739 -76.3183 206° Southwest 313 360 43,000  Level Washington Center
Fri 11:27:44 PM 39.4944 -76.3714 207° Southwest 319 367 43,000  Level Washington Center
Fri 11:28:44 PM 39.4250 -76.4486 221° Southwest 324 373 43,000  Level Washington Center
Fri 11:29:44 PM 39.3661 -76.5339 228° Southwest 330 380 43,000  Level Washington Center
Fri 11:30:44 PM 39.2925 -76.6294 225° Southwest 342 394 43,000  Level Washington Center
Fri 11:31:44 PM 39.2414 -76.7306 237° Southwest 353 406 43,000  Level Washington Center
Fri 11:32:44 PM 39.1800 -76.8286 231° Southwest 359 413 43,000  Level Washington Center
Fri 11:33:44 PM 39.1186 -76.9239 230° Southwest 359 413 43,000  Level Washington Center
Fri 11:34:44 PM 39.0550 -77.0244 231° Southwest 359 413 43,000  Level Washington Center
Fri 11:35:44 PM 38.9808 -77.1083 221° Southwest 359 413 43,000  Level Washington Center
Fri 11:36:44 PM 38.9069 -77.1894 221° Southwest 353 406 43,000  Level Washington Center
Fri 11:37:44 PM 38.8331 -77.2678 220° Southwest 353 406 43,000  Level Washington Center
Fri 11:38:44 PM 38.7589 -77.3486 220° Southwest 353 406 43,000  Level Washington Center
Fri 11:39:44 PM 38.6825 -77.4294 220° Southwest 358 412 43,000  Level Washington Center
Fri 11:40:44 PM 38.6103 -77.5100 221° Southwest 358 412 43,000  Level Washington Center
Fri 11:41:44 PM 38.5361 -77.5931 221° Southwest 358 412 43,000  Level Washington Center
Fri 11:42:44 PM 38.4597 -77.6758 220° Southwest 358 412 43,000  Level Washington Center
Fri 11:43:44 PM 38.3872 -77.7558 221° Southwest 358 412 43,000  Level Washington Center
Fri 11:44:44 PM 38.3128 -77.8356 220° Southwest 358 412 43,000  Level Washington Center
Fri 11:45:44 PM 38.2364 -77.9153 219° Southwest 358 412 43,000  Level Washington Center
Fri 11:46:44 PM 38.1617 -77.9975 221° Southwest 358 412 43,000  Level Washington Center
Fri 11:47:44 PM 38.0869 -78.0769 220° Southwest 358 412 43,000  Level Washington Center
Fri 11:48:44 PM 38.0039 -78.1611 219° Southwest 358 412 43,000  Level Washington Center
Fri 11:49:44 PM 37.9378 -78.2272 218° Southwest 352 405 43,000  Level Washington Center
Fri 11:50:44 PM 37.8611 -78.3008 217° Southwest 352 405 43,000  Level Washington Center
Fri 11:51:44 PM 37.7800 -78.3794 217° Southwest 357 411 43,000  Level Washington Center
Fri 11:52:44 PM 37.7014 -78.4500 215° Southwest 357 411 43,000  Level Washington Center
Fri 11:53:44 PM 37.6136 -78.5358 218° Southwest 357 411 43,000  Level Washington Center
Fri 11:54:44 PM 37.5367 -78.6089 217° Southwest 357 411 43,000  Level Washington Center
Fri 11:55:44 PM 37.4578 -78.6817 216° Southwest 352 405 43,000  Level Washington Center
Fri 11:56:44 PM 37.3786 -78.7542 216° Southwest 352 405 43,000  Level Washington Center
Fri 11:57:44 PM 37.2972 -78.8292 216° Southwest 352 405 43,000  Level Washington Center
Fri 11:58:44 PM 37.2225 -78.8964 216° Southwest 358 412 43,000  Level Washington Center
Fri 11:59:44 PM 37.1453 -78.9714 218° Southwest 358 412 43,000  Level Washington Center
Sat 12:00:44 AM 37.0639 -79.0458 216° Southwest 358 412 43,000  Level Washington Center
Sat 12:01:44 AM 36.9844 -79.1203 217° Southwest 358 412 43,000  Level Washington Center
Sat 12:02:43 AM 36.9053 -79.1944 217° Southwest 363 418 43,000  Level Washington Center
Sat 12:03:43 AM 36.8131 -79.2758 215° Southwest 368 423 43,000  Level Washington Center
Sat 12:04:43 AM 36.7333 -79.3525 218° Southwest 368 423 43,000  Level Washington Center
Sat 12:05:44 AM 36.6517 -79.4261 216° Southwest 373 429 43,000  Level Washington Center
Sat 12:06:43 AM 36.5681 -79.5022 216° Southwest 373 429 43,000  Level Washington Center
Sat 12:07:44 AM 36.5011 -79.5661 218° Southwest 373 429 43,000 50 Level Washington Center
Sat 12:08:44 AM 36.4128 -79.6492 217° Southwest 360 414 43,100  Climbing Washington Center
Sat 12:09:05 AM 36.3772 -79.6808 216° Southwest 361 415 43,000 -74 Descending Atlanta Center
Sat 12:10:05 AM 36.3103 -79.7333 212° Southwest 375 432 43,000  Level Atlanta Center
Sat 12:11:05 AM 36.2192 -79.8156 216° Southwest 375 432 43,000  Level Atlanta Center
Sat 12:12:05 AM 36.1361 -79.8892 216° Southwest 375 432 43,000  Level Atlanta Center
Sat 12:13:05 AM 36.0553 -79.9628 216° Southwest 369 425 43,000  Level Atlanta Center
Sat 12:14:05 AM 35.9611 -80.0186 206° Southwest 374 430 43,000  Level Atlanta Center
Sat 12:15:05 AM 35.8522 -80.0650 199° South 372 428 43,000  Level Atlanta Center
Sat 12:16:05 AM 35.7578 -80.1158 204° Southwest 372 428 43,000  Level Atlanta Center
Sat 12:17:05 AM 35.6656 -80.1689 205° Southwest 372 428 43,000  Level Atlanta Center
Sat 12:18:05 AM 35.5689 -80.2142 201° Southwest 372 428 43,000  Level Atlanta Center
Sat 12:19:05 AM 35.4703 -80.2647 203° Southwest 377 434 43,000  Level Atlanta Center
Sat 12:20:05 AM 35.3819 -80.3094 202° Southwest 377 434 43,000  Level Atlanta Center
Sat 12:21:05 AM 35.2856 -80.3572 202° Southwest 377 434 43,000  Level Atlanta Center
Sat 12:22:05 AM 35.1908 -80.4044 202° Southwest 377 434 43,000  Level Atlanta Center
Sat 12:23:05 AM 35.0922 -80.4544 203° Southwest 382 440 43,000  Level Atlanta Center
Sat 12:24:05 AM 34.9853 -80.5072 202° Southwest 382 440 43,000  Level Atlanta Center
Sat 12:25:43 AM 34.8231 -80.5861 202° Southwest 375 432 43,000  Level Jacksonville Center
Sat 12:26:43 AM 34.7383 -80.6314 204° Southwest 370 426 43,000  Level Jacksonville Center
Sat 12:27:44 AM 34.6411 -80.6769 201° Southwest 375 432 43,000  Level Jacksonville Center
Sat 12:28:43 AM 34.5272 -80.7328 202° Southwest 401 461 43,000  Level Jacksonville Center
Sat 12:29:43 AM 34.4192 -80.7556 190° South 389 448 43,000  Level Jacksonville Center
Sat 12:30:43 AM 34.3214 -80.7706 187° South 399 459 43,000  Level Jacksonville Center
Sat 12:31:43 AM 34.2150 -80.7781 183° South 399 459 43,000  Level Jacksonville Center
Sat 12:32:43 AM 34.1069 -80.7908 186° South 399 459 43,000  Level Jacksonville Center
Sat 12:33:43 AM 33.9944 -80.8036 185° South 399 459 43,000  Level Jacksonville Center
Sat 12:34:43 AM 33.8839 -80.8161 185° South 404 465 43,000  Level Jacksonville Center
Sat 12:35:43 AM 33.7736 -80.8264 184° South 404 465 43,000  Level Jacksonville Center
Sat 12:36:43 AM 33.6611 -80.8389 185° South 404 465 43,000  Level Jacksonville Center
Sat 12:37:43 AM 33.5508 -80.8514 185° South 404 465 43,000  Level Jacksonville Center
Sat 12:38:43 AM 33.4425 -80.8639 185° South 404 465 43,000  Level Jacksonville Center
Sat 12:39:43 AM 33.3300 -80.8764 185° South 404 465 43,000  Level Jacksonville Center
Sat 12:40:43 AM 33.2175 -80.8889 185° South 404 465 43,000  Level Jacksonville Center
Sat 12:41:43 AM 33.1047 -80.8989 184° South 404 465 43,000  Level Jacksonville Center
Sat 12:42:43 AM 32.9944 -80.9136 186° South 404 465 43,000  Level Jacksonville Center
Sat 12:43:43 AM 32.8819 -80.9211 183° South 404 465 43,000  Level Jacksonville Center
Sat 12:44:43 AM 32.7694 -80.9333 185° South 404 465 43,000  Level Jacksonville Center
Sat 12:45:43 AM 32.6589 -80.9458 185° South 404 465 43,000  Level Jacksonville Center
Sat 12:46:43 AM 32.5442 -80.9581 185° South 404 465 43,000  Level Jacksonville Center
Sat 12:47:43 AM 32.4336 -80.9678 184° South 404 465 43,000  Level Jacksonville Center
Sat 12:48:43 AM 32.3169 -80.9800 185° South 389 448 43,000  Level Jacksonville Center
Sat 12:49:43 AM 32.2044 -80.9897 184° South 399 459 43,000  Level Jacksonville Center
Sat 12:50:43 AM 32.0981 -80.9994 184° South 414 476 43,000  Level Jacksonville Center
Sat 12:51:43 AM 31.9708 -81.0117 185° South 426 490 43,000  Level Jacksonville Center
Sat 12:52:43 AM 31.8564 -81.0264 186° South 414 476 43,000  Level Jacksonville Center
Sat 12:53:43 AM 31.7542 -81.0381 186° South 414 476 43,000  Level Jacksonville Center
Sat 12:54:43 AM 31.6417 -81.0503 185° South 414 476 43,000  Level Jacksonville Center
Sat 12:55:43 AM 31.5125 -81.0625 185° South 424 488 43,000  Level Jacksonville Center
Sat 12:56:43 AM 31.3956 -81.0769 186° South 424 488 43,000  Level Jacksonville Center
Sat 12:57:43 AM 31.2811 -81.0914 186° South 424 488 43,000  Level Jacksonville Center
Sat 12:58:43 AM 31.1622 -81.1033 185° South 424 488 43,000  Level Jacksonville Center
Sat 12:59:43 AM 31.0453 -81.1128 184° South 424 488 43,000  Level Jacksonville Center
Sat 01:00:43 AM 30.9308 -81.1247 185° South 418 481 43,000  Level Jacksonville Center
Sat 01:01:43 AM 30.8181 -81.1364 185° South 418 481 43,000  Level Jacksonville Center
Sat 01:02:43 AM 30.6972 -81.1483 185° South 424 488 43,000  Level Jacksonville Center
Sat 01:03:43 AM 30.5783 -81.1553 183° South 424 488 43,000  Level Jacksonville Center
Sat 01:04:43 AM 30.4614 -81.1478 177° South 419 482 43,000  Level Jacksonville Center
Sat 01:05:43 AM 30.3422 -81.1428 178° South 425 489 43,000  Level Jacksonville Center
Sat 01:06:43 AM 30.2211 -81.1400 179° South 425 489 43,000  Level Jacksonville Center
Sat 01:07:43 AM 30.1042 -81.1375 179° South 425 489 43,000  Level Jacksonville Center
Sat 01:08:43 AM 29.9831 -81.1347 179° South 425 489 43,000  Level Jacksonville Center
Sat 01:09:43 AM 29.8619 -81.1300 178° South 430 495 43,000  Level Jacksonville Center
Sat 01:10:43 AM 29.7450 -81.1297 180° South 430 495 43,000  Level Jacksonville Center
Sat 01:11:43 AM 29.6258 -81.1222 177° South 430 495 43,000  Level Jacksonville Center
Sat 01:12:43 AM 29.5069 -81.1219 180° South 430 495 43,000  Level Jacksonville Center
Sat 01:13:43 AM 29.4025 -81.1167 177° South 421 484 43,000  Level Jacksonville Center
Sat 01:15:27 AM 29.1922 -81.0733 170° South 453 521 43,000  Level Miami Center
Sat 01:16:28 AM 29.0747 -81.0236 160° South 453 521 43,000  Level Miami Center
Sat 01:17:27 AM 28.9572 -80.9789 162° South 453 521 43,000  Level Miami Center
Sat 01:18:27 AM 28.8314 -80.9267 160° South 447 514 43,000  Level Miami Center
Sat 01:19:27 AM 28.7139 -80.8800 161° South 448 516 43,000  Level Miami Center
Sat 01:20:30 AM 28.6169 -80.8386 159° South 448 516 43,000  Level Miami Center
Sat 01:21:29 AM 28.4764 -80.7839 161° South 448 516 43,000  Level Miami Center
Sat 01:22:30 AM 28.3711 -80.7425 161° South 453 521 43,000  Level Miami Center
Sat 01:23:27 AM 28.2514 -80.6961 161° South 453 521 43,000  Level Miami Center
Sat 01:24:30 AM 28.1317 -80.6450 159° South 453 521 43,000  Level Miami Center
Sat 01:25:27 AM 28.0119 -80.6033 163° South 463 533 43,000 -564 Level Miami Center
Sat 01:26:27 AM 27.8917 -80.5642 164° South 456 525 41,900 -1,756 Descending Miami Center
Sat 01:27:30 AM 27.7531 -80.5172 163° South 466 536 39,400 -2,331 Descending Miami Center
Sat 01:28:28 AM 27.6289 -80.4733 163° South 466 536 37,200 -2,300 Descending Miami Center
Sat 01:29:30 AM 27.5069 -80.4228 160° South 466 536 34,800 -2,672 Descending Miami Center
Sat 01:30:27 AM 27.3769 -80.3697 160° South 482 555 31,900 -2,974 Descending Miami Center
Sat 01:31:27 AM 27.2464 -80.3189 161° South 488 562 29,000 -2,850 Descending Miami Center
Sat 01:32:27 AM 27.1203 -80.2664 160° South 494 568 26,200 -2,750 Descending Miami Center
Sat 01:33:27 AM 26.9964 -80.2161 160° South 494 568 23,500 -2,800 Descending Miami Center
Sat 01:34:27 AM 26.8719 -80.1681 161° South 478 550 20,600 -2,700 Descending Miami Center
Sat 01:35:27 AM 26.7750 -80.1258 159° South 431 496 18,100 -2,250 Descending Miami Center
Sat 01:36:27 AM 26.6567 -80.0831 162° South 417 480 16,100 -1,235 Descending Miami Center
Sat 01:37:09 AM 26.5881 -80.0767 175° South 368 423 16,000 -100 Descending Miami Center
Sat 01:37:27 AM 26.5547 -80.0664 165° South 390 449 16,000  Level Miami Center
Sat 01:37:57 AM 26.5047 -80.0603 174° South 363 418 16,000  Level Miami Center
Sat 01:38:27 AM 26.4550 -80.0475 167° South 369 425 16,000  Level Miami Center
Sat 01:38:56 AM 26.4069 -80.0439 176° South 371 427 16,000 -900 Level Miami Center
Sat 01:39:27 AM 26.3525 -80.0492 185° South 363 418 15,100 -1,839 Descending Miami Center
Sat 01:39:58 AM 26.3103 -80.0736 207° Southwest 336 387 14,100 -1,967 Descending Miami Center
Sat 01:40:28 AM 26.2742 -80.1006 214° Southwest 338 389 13,100 -2,339 Descending Miami Center
Sat 01:40:57 AM 26.2336 -80.1342 217° Southwest 343 395 11,800 -2,419 Descending Miami Center
Sat 01:41:30 AM 26.1975 -80.1608 214° Southwest 338 389 10,600 -2,500 Descending Miami Center
Sat 01:41:57 AM 26.1553 -80.1922 214° Southwest 335 386 9,300 -2,000 Descending Miami Center
Sat 01:42:30 AM 26.1211 -80.2189 215° Southwest 343 395 8,600 -1,300 Descending Miami Center
Sat 01:42:57 AM 26.0869 -80.2458 215° Southwest 273 314 8,000 -621 Descending Miami Center
Sat 01:43:28 AM 26.0614 -80.2703 221° Southwest 313 360 8,000 -375 Level Miami Center
Sat 01:44:01 AM 26.0333 -80.3067 229° Southwest 275 316 7,600 -1,180 Descending Miami Center
Sat 01:44:29 AM 26.0078 -80.3289 218° Southwest 287 330 6,800 -1,862 Descending Miami Center
Sat 01:44:59 AM 25.9697 -80.3533 210° Southwest 268 308 5,800 -1,862 Descending Miami Center
Sat 01:45:27 AM 25.9442 -80.3711 212° Southwest 282 325 5,000 -1,619 Descending Miami Center
Sat 01:46:02 AM 25.9103 -80.3931 210° Southwest 248 285 4,100 -1,065 Descending Miami Center
Sat 01:46:29 AM 25.8847 -80.4108 212° Southwest 269 310 3,900 -1,200 Descending Miami Center
Sat 01:47:02 AM 25.8508 -80.4353 213° Southwest 239 275 2,900 -1,565 Descending Miami Center
Sat 01:48:01 AM 25.7900 -80.4403 184° South 219 252 1,500 -750 Descending Miami Center
Sat 01:49:02 AM 25.7975 -80.3897 81° East 156 180 1,400 -347 Descending Miami Center
Sat 01:50:02 AM 25.7964 -80.3461 92° East 136 157 800 -600 Descending Miami Center
Sat 01:52:00 AM 25.7954 -80.2901 103° East  Level Estimated
Sat 01:59:00 AM 25.7954 -80.2901 103° East  Level Estimated

Login

Don't have an account? Register now (free) for customized features, flight alerts, and more!